Flugplatz Dachau-Gröbenried

Für EDMD sind keine METAR/TAF Berichte vorhanden.
Es werden die Flugwettermeldungen vom Flugplatz Oberpfaffenhofen in 19 km Entfernung angezeigt.

Bericht für EDMO

vom 15.08. um 06:50 UTC

Wind 6 kt aus 220°

Sichtweite 10 km oder mehr

bedeckt in 13000 ft

Temperatur 19.0°C

Taupunkt 17.0°C

Luftfeuchtigkeit 88%

Luftdruck 1017 hPa

EDMO 150650Z AUTO 22006KT 9999 // OVC130/// 19/17 Q1017
Keine Prognose (TAF) verfügbar.
Impressum